PWSweather.com
Personal Weather Stations
Station Observations
WILS01
Leuven, WilseleBE 3012

LeuvenWilseleBE 3012

Lat: 50.89518, Lon: 4.69741

Elevation: 120

Station Type: DAVIS VP2

Latest ConditionsUpdated 5:11:16 PM GMT+01:01 Saturday, May 23, 2015
Currently Today's Max Today's Min Today's Average
Temperature 59.7°F15.4°C 69.3°F20.7°C 54.1°F12.3°C 59.9°F15.5°C
Dew Point 54.0°F12.2°C 58.6°F14.8°C 49.6°F9.8°C 53.8°F12.1°C
Winds 1.1 mph NW1.8 kmh NW 2.0 mph NW3.2 kmh NW - 0.4 mph 0.6 kmh
Wind Gusts 1.3 mph2.1 kmh 2.5 mph4.0 kmh - -
Humidity 81% 87% 65% 81%
Pressure 30.16 in1021.3 mb 30.22 in1023.4 mb 30.15 in1021.0 mb -
Hour Temp Dew Point Humidity Winds Wind Gusts Pressure Precip Precip Rate Daily Precip Total
05:11 PM 59.7°F15.4°C 54.0°F12.2°C 81% 1.1 mph NW1.8 kmh NW 1.3 mph2.1 kmh 30.16 in1021.3 mb - 0.00 in0.0 mm 0.00 in0.0 mm
05:01 PM 60.1°F15.6°C 54.3°F12.4°C 81% 0.9 mph NE1.4 kmh NE 2.0 mph3.2 kmh 30.17 in1021.7 mb - 0.00 in0.0 mm 0.00 in0.0 mm
04:50 PM 60.1°F15.6°C 54.5°F12.5°C 82% 0.9 mph NE1.4 kmh NE 1.6 mph2.6 kmh 30.16 in1021.3 mb - 0.00 in0.0 mm 0.00 in0.0 mm
04:40 PM 60.1°F15.6°C 54.9°F12.7°C 82% 1.6 mph NNE2.6 kmh NNE 0.9 mph1.4 kmh 30.17 in1021.7 mb - 0.00 in0.0 mm 0.00 in0.0 mm
04:30 PM 59.5°F15.3°C 54.7°F12.6°C 84% 1.6 mph ENE2.6 kmh ENE 2.2 mph3.5 kmh 30.17 in1021.7 mb - 0.00 in0.0 mm 0.00 in0.0 mm
04:20 PM 59.9°F15.5°C 55.0°F12.8°C 84% 1.6 mph NE2.6 kmh NE 2.2 mph3.5 kmh 30.17 in1021.7 mb - 0.00 in0.0 mm 0.00 in0.0 mm
04:09 PM 61.2°F16.2°C 55.6°F13.1°C 82% 1.6 mph E2.6 kmh E 1.3 mph2.1 kmh 30.17 in1021.7 mb - 0.00 in0.0 mm 0.00 in0.0 mm
03:59 PM 60.3°F15.7°C 55.0°F12.8°C 83% 2.0 mph ENE3.2 kmh ENE 1.8 mph2.9 kmh 30.16 in1021.3 mb - 0.00 in0.0 mm 0.00 in0.0 mm
03:49 PM 60.8°F16.0°C 55.2°F12.9°C 82% 1.1 mph NE1.8 kmh NE 2.2 mph3.5 kmh 30.16 in1021.3 mb - 0.00 in0.0 mm 0.00 in0.0 mm
03:38 PM 61.2°F16.2°C 55.6°F13.1°C 82% 1.6 mph ENE2.6 kmh ENE 1.6 mph2.6 kmh 30.16 in1021.3 mb - 0.00 in0.0 mm 0.00 in0.0 mm
03:28 PM 61.2°F16.2°C 55.6°F13.1°C 82% 1.1 mph NE1.8 kmh NE 1.6 mph2.6 kmh 30.16 in1021.3 mb - 0.00 in0.0 mm 0.00 in0.0 mm
03:18 PM 61.7°F16.5°C 56.1°F13.4°C 82% 0.9 mph S1.4 kmh S 0.9 mph1.4 kmh 30.16 in1021.3 mb - 0.00 in0.0 mm 0.00 in0.0 mm
03:07 PM 61.7°F16.5°C 56.7°F13.7°C 83% 1.6 mph W2.6 kmh W 1.1 mph1.8 kmh 30.16 in1021.3 mb - 0.00 in0.0 mm 0.00 in0.0 mm
02:57 PM 61.5°F16.4°C 56.3°F13.5°C 83% 1.6 mph WNW2.6 kmh WNW 2.0 mph3.2 kmh 30.16 in1021.3 mb - 0.00 in0.0 mm 0.00 in0.0 mm
02:46 PM 61.9°F16.6°C 56.7°F13.7°C 83% 1.1 mph NE1.8 kmh NE 1.3 mph2.1 kmh 30.16 in1021.3 mb - 0.00 in0.0 mm 0.00 in0.0 mm
02:36 PM 61.9°F16.6°C 56.5°F13.6°C 82% 2.0 mph 3.2 kmh 2.2 mph3.5 kmh 30.16 in1021.3 mb - 0.00 in0.0 mm 0.00 in0.0 mm
02:26 PM 63.1°F17.3°C 57.2°F14.0°C 81% 0.9 mph ENE1.4 kmh ENE 1.3 mph2.1 kmh 30.16 in1021.3 mb - 0.00 in0.0 mm 0.00 in0.0 mm
02:15 PM 64.0°F17.8°C 57.4°F14.1°C 79% 1.8 mph SSW2.9 kmh SSW 1.1 mph1.8 kmh 30.16 in1021.3 mb - 0.00 in0.0 mm 0.00 in0.0 mm
02:05 PM 65.3°F18.5°C 57.6°F14.2°C 76% 2.0 mph ENE3.2 kmh ENE 2.5 mph4.0 kmh 30.16 in1021.3 mb - 0.00 in0.0 mm 0.00 in0.0 mm
01:55 PM 67.1°F19.5°C 57.7°F14.3°C 72% 1.6 mph NNW2.6 kmh NNW 1.6 mph2.6 kmh 30.15 in1021.0 mb - 0.00 in0.0 mm 0.00 in0.0 mm
01:44 PM 67.3°F19.6°C 58.3°F14.6°C 73% 1.1 mph WNW1.8 kmh WNW 1.1 mph1.8 kmh 30.15 in1021.0 mb - 0.00 in0.0 mm 0.00 in0.0 mm
01:34 PM 66.9°F19.4°C 57.9°F14.4°C 73% 2.0 mph ENE3.2 kmh ENE 1.6 mph2.6 kmh 30.15 in1021.0 mb - 0.00 in0.0 mm 0.00 in0.0 mm
01:23 PM 67.5°F19.7°C 57.9°F14.4°C 71% 2.0 mph NW3.2 kmh NW 2.5 mph4.0 kmh 30.15 in1021.0 mb - 0.00 in0.0 mm 0.00 in0.0 mm
01:13 PM 67.1°F19.5°C 57.9°F14.4°C 72% 2.0 mph NW3.2 kmh NW 1.8 mph2.9 kmh 30.16 in1021.3 mb - 0.00 in0.0 mm 0.00 in0.0 mm
01:03 PM 66.6°F19.2°C 57.6°F14.2°C 73% 0.9 mph 1.4 kmh 1.6 mph2.6 kmh 30.16 in1021.3 mb - 0.00 in0.0 mm 0.00 in0.0 mm
12:52 PM 66.7°F19.3°C 58.1°F14.5°C 73% 2.0 mph WSW3.2 kmh WSW 2.2 mph3.5 kmh 30.16 in1021.3 mb - 0.00 in0.0 mm 0.00 in0.0 mm
12:42 PM 65.7°F18.7°C 57.4°F14.1°C 74% 0.9 mph WNW1.4 kmh WNW 1.3 mph2.1 kmh 30.16 in1021.3 mb - 0.00 in0.0 mm 0.00 in0.0 mm
12:32 PM 67.8°F19.9°C 57.6°F14.2°C 69% Calm Calm 0.9 mph1.4 kmh 30.16 in1021.3 mb - 0.00 in0.0 mm 0.00 in0.0 mm
12:22 PM 69.3°F20.7°C 58.6°F14.8°C 69% Calm Calm -- 30.16 in1021.3 mb - 0.00 in0.0 mm 0.00 in0.0 mm
12:11 PM 68.9°F20.5°C 58.5°F14.7°C 69% Calm Calm -- 30.16 in1021.3 mb - 0.00 in0.0 mm 0.00 in0.0 mm
12:01 PM 67.5°F19.7°C 57.4°F14.1°C 70% Calm Calm -- 30.16 in1021.3 mb - 0.00 in0.0 mm 0.00 in0.0 mm
11:51 AM 67.5°F19.7°C 57.4°F14.1°C 70% Calm Calm -- 30.17 in1021.7 mb - 0.00 in0.0 mm 0.00 in0.0 mm
11:41 AM 67.1°F19.5°C 57.2°F14.0°C 70% Calm Calm -- 30.17 in1021.7 mb - 0.00 in0.0 mm 0.00 in0.0 mm
11:30 AM 67.5°F19.7°C 57.0°F13.9°C 68% Calm Calm -- 30.17 in1021.7 mb - 0.00 in0.0 mm 0.00 in0.0 mm
11:20 AM 67.5°F19.7°C 56.7°F13.7°C 68% Calm Calm -- 30.17 in1021.7 mb - 0.00 in0.0 mm 0.00 in0.0 mm
11:09 AM 67.1°F19.5°C 56.5°F13.6°C 68% Calm Calm -- 30.17 in1021.7 mb - 0.00 in0.0 mm 0.00 in0.0 mm
10:59 AM 67.5°F19.7°C 57.0°F13.9°C 69% Calm Calm -- 30.17 in1021.7 mb - 0.00 in0.0 mm 0.00 in0.0 mm
10:49 AM 66.9°F19.4°C 55.8°F13.2°C 67% Calm Calm -- 30.18 in1022.0 mb - 0.00 in0.0 mm 0.00 in0.0 mm
10:39 AM 66.4°F19.1°C 55.4°F13.0°C 68% Calm Calm -- 30.18 in1022.0 mb - 0.00 in0.0 mm 0.00 in0.0 mm
10:29 AM 66.9°F19.4°C 54.9°F12.7°C 65% Calm Calm -- 30.18 in1022.0 mb - 0.00 in0.0 mm 0.00 in0.0 mm
10:18 AM 65.5°F18.6°C 55.0°F12.8°C 69% Calm Calm -- 30.18 in1022.0 mb - 0.00 in0.0 mm 0.00 in0.0 mm
10:08 AM 63.7°F17.6°C 54.0°F12.2°C 70% Calm Calm -- 30.18 in1022.0 mb - 0.00 in0.0 mm 0.00 in0.0 mm
09:57 AM 63.3°F17.4°C 54.0°F12.2°C 71% Calm Calm -- 30.18 in1022.0 mb - 0.00 in0.0 mm 0.00 in0.0 mm
09:47 AM 62.2°F16.8°C 54.0°F12.2°C 74% Calm Calm -- 30.18 in1022.0 mb - 0.00 in0.0 mm 0.00 in0.0 mm
09:37 AM 62.6°F17.0°C 54.9°F12.7°C 75% Calm Calm -- 30.18 in1022.0 mb - 0.00 in0.0 mm 0.00 in0.0 mm
09:27 AM 61.5°F16.4°C 54.7°F12.6°C 78% Calm Calm -- 30.19 in1022.4 mb - 0.00 in0.0 mm 0.00 in0.0 mm
09:16 AM 61.2°F16.2°C 54.5°F12.5°C 78% Calm Calm -- 30.19 in1022.4 mb - 0.00 in0.0 mm 0.00 in0.0 mm
09:06 AM 60.4°F15.8°C 54.0°F12.2°C 79% Calm Calm -- 30.19 in1022.4 mb - 0.00 in0.0 mm 0.00 in0.0 mm
08:56 AM 60.3°F15.7°C 53.8°F12.1°C 79% Calm Calm -- 30.19 in1022.4 mb - 0.00 in0.0 mm 0.00 in0.0 mm
08:45 AM 59.9°F15.5°C 53.6°F12.0°C 79% Calm Calm -- 30.19 in1022.4 mb - 0.00 in0.0 mm 0.00 in0.0 mm
08:35 AM 60.1°F15.6°C 53.8°F12.1°C 79% Calm Calm -- 30.19 in1022.4 mb - 0.00 in0.0 mm 0.00 in0.0 mm
08:24 AM 59.2°F15.1°C 53.6°F12.0°C 81% Calm Calm -- 30.19 in1022.4 mb - 0.00 in0.0 mm 0.00 in0.0 mm
08:14 AM 59.0°F15.0°C 53.6°F12.0°C 82% Calm Calm -- 30.19 in1022.4 mb - 0.00 in0.0 mm 0.00 in0.0 mm
08:04 AM 58.5°F14.7°C 53.2°F11.8°C 83% Calm Calm -- 30.19 in1022.4 mb - 0.00 in0.0 mm 0.00 in0.0 mm
07:54 AM 57.9°F14.4°C 53.1°F11.7°C 84% Calm Calm -- 30.19 in1022.4 mb - 0.00 in0.0 mm 0.00 in0.0 mm
07:44 AM 57.7°F14.3°C 53.1°F11.7°C 84% Calm Calm -- 30.18 in1022.0 mb - 0.00 in0.0 mm 0.00 in0.0 mm
07:33 AM 57.7°F14.3°C 52.9°F11.6°C 84% Calm Calm -- 30.18 in1022.0 mb - 0.00 in0.0 mm 0.00 in0.0 mm
07:23 AM 57.6°F14.2°C 53.1°F11.7°C 85% Calm Calm -- 30.18 in1022.0 mb - 0.00 in0.0 mm 0.00 in0.0 mm
07:13 AM 56.8°F13.8°C 52.3°F11.3°C 85% Calm Calm -- 30.18 in1022.0 mb - 0.00 in0.0 mm 0.00 in0.0 mm
07:03 AM 56.5°F13.6°C 52.0°F11.1°C 85% Calm Calm -- 30.18 in1022.0 mb - 0.00 in0.0 mm 0.00 in0.0 mm
06:53 AM 56.5°F13.6°C 52.0°F11.1°C 85% Calm Calm -- 30.18 in1022.0 mb - 0.00 in0.0 mm 0.00 in0.0 mm
06:42 AM 56.5°F13.6°C 52.2°F11.2°C 85% Calm Calm -- 30.18 in1022.0 mb - 0.00 in0.0 mm 0.00 in0.0 mm
06:32 AM 56.1°F13.4°C 52.2°F11.2°C 86% Calm Calm -- 30.18 in1022.0 mb - 0.00 in0.0 mm 0.00 in0.0 mm
06:22 AM 56.1°F13.4°C 52.3°F11.3°C 87% Calm Calm -- 30.17 in1021.7 mb - 0.00 in0.0 mm 0.00 in0.0 mm
06:11 AM 55.8°F13.2°C 52.0°F11.1°C 87% Calm Calm -- 30.17 in1021.7 mb - 0.00 in0.0 mm 0.00 in0.0 mm
06:01 AM 55.6°F13.1°C 51.8°F11.0°C 87% Calm Calm -- 30.17 in1021.7 mb - 0.00 in0.0 mm 0.00 in0.0 mm
05:51 AM 55.2°F12.9°C 51.4°F10.8°C 87% Calm Calm -- 30.17 in1021.7 mb - 0.00 in0.0 mm 0.00 in0.0 mm
05:40 AM 55.2°F12.9°C 51.4°F10.8°C 87% Calm Calm -- 30.17 in1021.7 mb - 0.00 in0.0 mm 0.00 in0.0 mm
05:30 AM 55.0°F12.8°C 51.3°F10.7°C 87% Calm Calm -- 30.17 in1021.7 mb - 0.00 in0.0 mm 0.00 in0.0 mm
05:20 AM 55.0°F12.8°C 51.3°F10.7°C 87% Calm Calm -- 30.18 in1022.0 mb - 0.00 in0.0 mm 0.00 in0.0 mm
05:09 AM 55.0°F12.8°C 51.3°F10.7°C 87% Calm Calm -- 30.18 in1022.0 mb - 0.00 in0.0 mm 0.00 in0.0 mm
04:59 AM 55.0°F12.8°C 51.3°F10.7°C 87% Calm Calm -- 30.18 in1022.0 mb - 0.00 in0.0 mm 0.00 in0.0 mm
04:49 AM 55.2°F12.9°C 51.4°F10.8°C 87% Calm Calm -- 30.18 in1022.0 mb - 0.00 in0.0 mm 0.00 in0.0 mm
04:39 AM 55.2°F12.9°C 51.4°F10.8°C 87% Calm Calm -- 30.18 in1022.0 mb - 0.00 in0.0 mm 0.00 in0.0 mm
04:29 AM 55.4°F13.0°C 51.4°F10.8°C 86% Calm Calm -- 30.18 in1022.0 mb - 0.00 in0.0 mm 0.00 in0.0 mm
04:19 AM 55.4°F13.0°C 51.4°F10.8°C 86% Calm Calm -- 30.18 in1022.0 mb - 0.00 in0.0 mm 0.00 in0.0 mm
04:09 AM 55.4°F13.0°C 51.3°F10.7°C 86% Calm Calm -- 30.18 in1022.0 mb - 0.00 in0.0 mm 0.00 in0.0 mm
03:58 AM 55.4°F13.0°C 51.6°F10.9°C 87% Calm Calm -- 30.17 in1021.7 mb - 0.00 in0.0 mm 0.00 in0.0 mm
03:48 AM 55.6°F13.1°C 51.8°F11.0°C 87% Calm Calm -- 30.17 in1021.7 mb - 0.00 in0.0 mm 0.00 in0.0 mm
03:38 AM 55.6°F13.1°C 51.4°F10.8°C 86% Calm Calm -- 30.18 in1022.0 mb - 0.00 in0.0 mm 0.00 in0.0 mm
03:27 AM 55.6°F13.1°C 51.4°F10.8°C 86% Calm Calm -- 30.18 in1022.0 mb - 0.00 in0.0 mm 0.00 in0.0 mm
03:17 AM 55.6°F13.1°C 51.4°F10.8°C 86% Calm Calm -- 30.19 in1022.4 mb - 0.00 in0.0 mm 0.00 in0.0 mm
03:06 AM 55.6°F13.1°C 51.4°F10.8°C 86% Calm Calm 0.2 mph0.3 kmh 30.19 in1022.4 mb - 0.00 in0.0 mm 0.00 in0.0 mm
02:56 AM 55.6°F13.1°C 51.4°F10.8°C 86% Calm Calm 0.2 mph0.3 kmh 30.18 in1022.0 mb - 0.00 in0.0 mm 0.00 in0.0 mm
02:45 AM 55.6°F13.1°C 51.4°F10.8°C 86% Calm Calm 0.2 mph0.3 kmh 30.19 in1022.4 mb - 0.00 in0.0 mm 0.00 in0.0 mm
02:35 AM 55.6°F13.1°C 51.4°F10.8°C 86% Calm Calm -- 30.19 in1022.4 mb - 0.00 in0.0 mm 0.00 in0.0 mm
02:25 AM 55.6°F13.1°C 51.1°F10.6°C 85% Calm Calm -- 30.19 in1022.4 mb - 0.00 in0.0 mm 0.00 in0.0 mm
02:15 AM 55.8°F13.2°C 51.3°F10.7°C 85% Calm Calm 0.4 mph0.6 kmh 30.19 in1022.4 mb - 0.00 in0.0 mm 0.00 in0.0 mm
02:05 AM 55.8°F13.2°C 51.3°F10.7°C 85% Calm Calm 0.2 mph0.3 kmh 30.19 in1022.4 mb - 0.00 in0.0 mm 0.00 in0.0 mm
01:54 AM 55.4°F13.0°C 51.1°F10.6°C 85% Calm Calm 0.2 mph0.3 kmh 30.19 in1022.4 mb - 0.00 in0.0 mm 0.00 in0.0 mm
01:44 AM 55.0°F12.8°C 50.9°F10.5°C 86% Calm Calm 0.2 mph0.3 kmh 30.20 in1022.7 mb - 0.00 in0.0 mm 0.00 in0.0 mm
01:34 AM 55.0°F12.8°C 50.9°F10.5°C 86% Calm Calm -- 30.20 in1022.7 mb - 0.00 in0.0 mm 0.00 in0.0 mm
01:24 AM 55.0°F12.8°C 50.9°F10.5°C 86% Calm Calm -- 30.21 in1023.0 mb - 0.00 in0.0 mm 0.00 in0.0 mm
01:14 AM 54.9°F12.7°C 50.7°F10.4°C 86% Calm Calm -- 30.21 in1023.0 mb - 0.00 in0.0 mm 0.00 in0.0 mm
01:03 AM 54.9°F12.7°C 50.7°F10.4°C 86% Calm Calm -- 30.21 in1023.0 mb - 0.00 in0.0 mm 0.00 in0.0 mm
12:53 AM 54.7°F12.6°C 50.7°F10.4°C 86% Calm Calm -- 30.21 in1023.0 mb - 0.00 in0.0 mm 0.00 in0.0 mm
12:43 AM 54.5°F12.5°C 50.4°F10.2°C 86% Calm Calm -- 30.21 in1023.0 mb - 0.00 in0.0 mm 0.00 in0.0 mm
12:32 AM 54.3°F12.4°C 50.2°F10.1°C 86% Calm Calm -- 30.22 in1023.4 mb - 0.00 in0.0 mm 0.00 in0.0 mm
12:22 AM 54.3°F12.4°C 50.2°F10.1°C 86% Calm Calm -- 30.22 in1023.4 mb - 0.00 in0.0 mm 0.00 in0.0 mm
12:12 AM 54.1°F12.3°C 49.8°F9.9°C 85% Calm Calm -- 30.22 in1023.4 mb - 0.00 in0.0 mm 0.00 in0.0 mm
12:02 AM 54.1°F12.3°C 49.6°F9.8°C 84% Calm Calm -- 30.22 in1023.4 mb - 0.00 in0.0 mm 0.00 in0.0 mm